Time;durP1;ratioP1;P1;durP2;ratioP2;P2;SDS_P1;SDS_P2;PMS_P1;PMS_P2;Temp;Humidity;BMP_temperature;BMP_pressure;BME280_temperature;BME280_humidity;BME280_pressure;Samples;Min_cycle;Max_cycle;Signal;HPM_P1;HPM_P2
2022/10/28 00:02:15;;;;;;;24.67;13.40;;;;;;;;;;4996445;28;20033;-70
2022/10/28 00:04:40;;;;;;;30.60;15.48;;;;;;;;;;4997196;28;20045;-71
2022/10/28 00:07:05;;;;;;;27.17;15.90;;;;;;;;;;4998676;28;20179;-70
2022/10/28 00:09:31;;;;;;;27.23;15.45;;;;;;;;;;4998122;28;20135;-70
2022/10/28 00:11:56;;;;;;;27.52;14.85;;;;;;;;;;5006779;28;20827;-70
2022/10/28 00:14:22;;;;;;;24.95;13.88;;;;;;;;;;4997455;28;20033;-70
2022/10/28 00:16:47;;;;;;;23.00;14.00;;;;;;;;;;4997316;28;20040;-70
2022/10/28 00:19:13;;;;;;;27.20;13.30;;;;;;;;;;4997532;28;20029;-70
2022/10/28 00:21:39;;;;;;;25.17;14.27;;;;;;;;;;5001218;28;20201;-69
2022/10/28 00:24:05;;;;;;;25.77;13.93;;;;;;;;;;5001882;28;20029;-71
2022/10/28 00:26:31;;;;;;;23.80;13.25;;;;;;;;;;5001029;28;20037;-70
2022/10/28 00:28:58;;;;;;;28.35;14.15;;;;;;;;;;5002058;28;20040;-70
2022/10/28 00:31:24;;;;;;;27.05;13.57;;;;;;;;;;5000228;28;20035;-70
2022/10/28 00:33:50;;;;;;;28.38;13.88;;;;;;;;;;5001894;28;20043;-70
2022/10/28 00:36:16;;;;;;;24.52;14.82;;;;;;;;;;5000031;28;22264;-69
2022/10/28 00:38:44;;;;;;;26.23;14.63;;;;;;;;;;5001916;28;20033;-70
2022/10/28 00:41:10;;;;;;;27.30;15.68;;;;;;;;;;5001077;28;20764;-70
2022/10/28 00:43:40;;;;;;;30.95;16.23;;;;;;;;;;5001082;28;20863;-72
2022/10/28 00:46:13;;;;;;;30.85;16.65;;;;;;;;;;5001132;28;20083;-70
2022/10/28 00:48:42;;;;;;;27.95;17.17;;;;;;;;;;4999329;28;20040;-70
2022/10/28 00:51:08;;;;;;;35.65;18.17;;;;;;;;;;5000530;28;20711;-70
2022/10/28 00:53:34;;;;;;;42.40;19.20;;;;;;;;;;5001300;28;20052;-70
2022/10/28 00:56:00;;;;;;;37.47;19.30;;;;;;;;;;5014644;28;20144;-71
2022/10/28 00:58:26;;;;;;;41.42;19.50;;;;;;;;;;5001018;28;20033;-70
2022/10/28 01:00:51;;;;;;;31.35;17.67;;;;;;;;;;4999206;28;20068;-70
2022/10/28 01:03:17;;;;;;;32.50;16.73;;;;;;;;;;4983151;28;20025;-70
2022/10/28 01:05:46;;;;;;;33.05;16.27;;;;;;;;;;4999294;28;20035;-70
2022/10/28 01:08:12;;;;;;;39.90;17.67;;;;;;;;;;4997780;28;20090;-70
2022/10/28 01:10:56;;;;;;;33.75;17.33;;;;;;;;;;4998703;28;20037;-70
2022/10/28 01:13:27;;;;;;;39.55;17.45;;;;;;;;;;4998831;28;20041;-72
2022/10/28 01:15:57;;;;;;;36.90;17.70;;;;;;;;;;4999885;28;20103;-70
2022/10/28 01:18:38;;;;;;;30.98;16.13;;;;;;;;;;4997809;28;20622;-69
2022/10/28 01:21:03;;;;;;;31.90;15.63;;;;;;;;;;4996101;28;20029;-69
2022/10/28 01:23:32;;;;;;;29.67;15.45;;;;;;;;;;4997560;28;20144;-69
2022/10/28 01:25:57;;;;;;;31.60;15.65;;;;;;;;;;4998724;28;20036;-69
2022/10/28 01:28:23;;;;;;;27.75;14.25;;;;;;;;;;5001256;28;20033;-69
2022/10/28 01:31:11;;;;;;;31.38;14.38;;;;;;;;;;4997757;28;20100;-69
2022/10/28 01:33:45;;;;;;;29.48;14.13;;;;;;;;;;4998346;28;20034;-68
2022/10/28 01:36:14;;;;;;;30.33;14.23;;;;;;;;;;4997490;28;20769;-70
2022/10/28 01:39:00;;;;;;;32.53;15.25;;;;;;;;;;4999110;28;20058;-68
2022/10/28 01:41:32;;;;;;;39.10;16.23;;;;;;;;;;4997836;28;20045;-68
2022/10/28 01:44:29;;;;;;;38.63;16.77;;;;;;;;;;4997289;28;20124;-68
2022/10/28 01:47:08;;;;;;;38.45;15.60;;;;;;;;;;4994536;28;20037;-68
2022/10/28 01:49:38;;;;;;;32.55;16.15;;;;;;;;;;5000929;28;20043;-68
2022/10/28 01:52:04;;;;;;;31.63;15.93;;;;;;;;;;5001502;28;20025;-68
2022/10/28 01:54:32;;;;;;;28.30;15.15;;;;;;;;;;5000807;28;20038;-68
2022/10/28 01:56:59;;;;;;;31.42;14.77;;;;;;;;;;4998314;28;20037;-68
2022/10/28 01:59:26;;;;;;;32.40;15.32;;;;;;;;;;4999571;28;20033;-69
2022/10/28 02:01:52;;;;;;;30.15;15.57;;;;;;;;;;5001294;28;20952;-69
2022/10/28 02:04:20;;;;;;;31.98;15.90;;;;;;;;;;4998995;28;20628;-68
2022/10/28 02:06:48;;;;;;;33.47;16.15;;;;;;;;;;4999981;28;20044;-68
2022/10/28 02:09:17;;;;;;;27.00;14.85;;;;;;;;;;5003035;28;20055;-71
2022/10/28 02:12:01;;;;;;;35.03;15.55;;;;;;;;;;4998776;28;20037;-69
2022/10/28 02:14:35;;;;;;;24.38;13.20;;;;;;;;;;4999780;28;20048;-69
2022/10/28 02:17:23;;;;;;;25.65;12.85;;;;;;;;;;4997850;28;20033;-69
2022/10/28 02:19:51;;;;;;;24.50;12.13;;;;;;;;;;4998812;28;20041;-69
2022/10/28 02:22:16;;;;;;;26.50;11.77;;;;;;;;;;4997921;28;21718;-69
2022/10/28 02:24:56;;;;;;;22.75;10.80;;;;;;;;;;4999610;28;20037;-69
2022/10/28 02:27:29;;;;;;;25.92;11.57;;;;;;;;;;5000128;28;20060;-69
2022/10/28 02:30:05;;;;;;;23.10;10.90;;;;;;;;;;5001644;28;20063;-68
2022/10/28 02:32:32;;;;;;;23.23;11.10;;;;;;;;;;5000154;28;20589;-70
2022/10/28 02:34:59;;;;;;;19.00;9.57;;;;;;;;;;4998647;28;20037;-69
2022/10/28 02:37:28;;;;;;;24.05;10.07;;;;;;;;;;4999700;28;20856;-69
2022/10/28 02:39:55;;;;;;;25.23;10.48;;;;;;;;;;4997937;28;20033;-68
2022/10/28 02:42:25;;;;;;;21.70;9.68;;;;;;;;;;4997187;28;20048;-68
2022/10/28 02:44:59;;;;;;;20.92;9.82;;;;;;;;;;5000805;28;20037;-70
2022/10/28 02:47:27;;;;;;;23.42;9.55;;;;;;;;;;4997069;28;20065;-68
2022/10/28 02:49:56;;;;;;;24.45;10.25;;;;;;;;;;5000675;28;20033;-68
2022/10/28 02:52:24;;;;;;;23.50;10.30;;;;;;;;;;4999752;28;20118;-69
2022/10/28 02:54:57;;;;;;;20.15;9.55;;;;;;;;;;4998443;28;20147;-70
2022/10/28 02:57:24;;;;;;;20.40;10.13;;;;;;;;;;5014226;28;20832;-70
2022/10/28 02:59:59;;;;;;;18.98;9.43;;;;;;;;;;4998988;28;20092;-70
2022/10/28 03:02:24;;;;;;;23.70;10.65;;;;;;;;;;4998962;28;20140;-68
2022/10/28 03:04:50;;;;;;;22.02;9.98;;;;;;;;;;4998690;28;20041;-69
2022/10/28 03:07:15;;;;;;;21.63;9.75;;;;;;;;;;4998789;28;20037;-68
2022/10/28 03:09:40;;;;;;;26.77;10.27;;;;;;;;;;4997141;28;20124;-69
2022/10/28 03:12:06;;;;;;;22.60;10.07;;;;;;;;;;4998296;28;20364;-69
2022/10/28 03:14:34;;;;;;;25.58;10.00;;;;;;;;;;4999184;28;20670;-71
2022/10/28 03:16:59;;;;;;;23.17;10.68;;;;;;;;;;4997653;28;20127;-69
2022/10/28 03:19:24;;;;;;;21.95;10.73;;;;;;;;;;4999644;28;20812;-69
2022/10/28 03:21:50;;;;;;;26.92;10.73;;;;;;;;;;4997013;28;20036;-70
2022/10/28 03:24:15;;;;;;;23.80;10.88;;;;;;;;;;5001859;28;21052;-69
2022/10/28 03:26:40;;;;;;;23.38;10.75;;;;;;;;;;4994769;28;20044;-68
2022/10/28 03:29:06;;;;;;;27.38;11.10;;;;;;;;;;4997174;28;20825;-70
2022/10/28 03:31:32;;;;;;;26.85;10.68;;;;;;;;;;4997446;28;20847;-69
2022/10/28 03:33:57;;;;;;;27.58;10.77;;;;;;;;;;4998655;28;20128;-71
2022/10/28 03:36:25;;;;;;;31.48;11.73;;;;;;;;;;4997801;28;20064;-71
2022/10/28 03:38:52;;;;;;;32.28;12.52;;;;;;;;;;4998552;28;20885;-71
2022/10/28 03:41:18;;;;;;;33.65;13.70;;;;;;;;;;4996292;28;20025;-71
2022/10/28 03:43:53;;;;;;;41.45;13.68;;;;;;;;;;4996722;28;20111;-72
2022/10/28 03:46:19;;;;;;;33.17;13.80;;;;;;;;;;4997305;28;20036;-70
2022/10/28 03:48:46;;;;;;;30.02;12.80;;;;;;;;;;4998454;28;20033;-70
2022/10/28 03:51:12;;;;;;;37.33;13.88;;;;;;;;;;4999540;28;20090;-69
2022/10/28 03:53:37;;;;;;;28.83;12.65;;;;;;;;;;4997666;28;20044;-70
2022/10/28 03:56:02;;;;;;;24.05;11.48;;;;;;;;;;4997565;28;20045;-69
2022/10/28 03:58:29;;;;;;;24.33;11.73;;;;;;;;;;4999827;28;20144;-71
2022/10/28 04:00:54;;;;;;;21.60;10.93;;;;;;;;;;4997573;28;20127;-71
2022/10/28 04:03:21;;;;;;;24.45;10.93;;;;;;;;;;4997352;28;20060;-70
2022/10/28 04:05:49;;;;;;;24.58;12.10;;;;;;;;;;4999909;28;20040;-68
2022/10/28 04:08:14;;;;;;;26.20;11.43;;;;;;;;;;4995986;28;20041;-71
2022/10/28 04:10:40;;;;;;;26.67;12.50;;;;;;;;;;4996988;28;20763;-70
2022/10/28 04:13:07;;;;;;;21.85;11.35;;;;;;;;;;5001287;28;20911;-70
2022/10/28 04:15:35;;;;;;;23.48;11.77;;;;;;;;;;4995543;28;20041;-71
2022/10/28 04:18:01;;;;;;;21.63;11.18;;;;;;;;;;4996524;28;20694;-70
2022/10/28 04:20:26;;;;;;;23.92;11.30;;;;;;;;;;4998316;28;20047;-71
2022/10/28 04:22:53;;;;;;;22.70;11.32;;;;;;;;;;4997963;28;20113;-71
2022/10/28 04:25:19;;;;;;;26.10;11.35;;;;;;;;;;4992389;28;20044;-71
2022/10/28 04:27:44;;;;;;;29.13;11.30;;;;;;;;;;4995638;28;20627;-72
2022/10/28 04:30:11;;;;;;;28.73;12.07;;;;;;;;;;4995835;28;20822;-71
2022/10/28 04:32:37;;;;;;;33.80;13.73;;;;;;;;;;4995739;28;24374;-72
2022/10/28 04:35:04;;;;;;;31.60;14.40;;;;;;;;;;4994782;28;20822;-72
2022/10/28 04:37:30;;;;;;;32.22;15.32;;;;;;;;;;4995536;28;20037;-72
2022/10/28 04:39:57;;;;;;;35.28;15.80;;;;;;;;;;4996051;28;20033;-72
2022/10/28 04:42:23;;;;;;;45.72;19.05;;;;;;;;;;4996632;28;20814;-71
2022/10/28 04:44:51;;;;;;;47.55;21.13;;;;;;;;;;4996044;28;20064;-72
2022/10/28 04:47:16;;;;;;;50.13;22.02;;;;;;;;;;4995438;28;20045;-72
2022/10/28 04:49:42;;;;;;;49.90;20.98;;;;;;;;;;4998428;28;20053;-71
2022/10/28 04:52:07;;;;;;;54.33;22.83;;;;;;;;;;5000636;28;20071;-71
2022/10/28 04:54:32;;;;;;;44.92;20.58;;;;;;;;;;4998532;28;20040;-71
2022/10/28 04:56:57;;;;;;;44.00;18.67;;;;;;;;;;4998998;28;20029;-72
2022/10/28 04:59:25;;;;;;;44.40;20.27;;;;;;;;;;4997188;28;20049;-71
2022/10/28 05:01:50;;;;;;;47.55;21.90;;;;;;;;;;4996415;28;20037;-71
2022/10/28 05:04:15;;;;;;;48.25;21.60;;;;;;;;;;4996866;28;20826;-71
2022/10/28 05:06:41;;;;;;;42.83;19.50;;;;;;;;;;4997991;28;20122;-72
2022/10/28 05:09:06;;;;;;;41.67;16.20;;;;;;;;;;4998081;28;20029;-72
2022/10/28 05:11:32;;;;;;;31.13;14.85;;;;;;;;;;4999378;28;20045;-70
2022/10/28 05:13:59;;;;;;;45.17;19.90;;;;;;;;;;4999097;28;20040;-70
2022/10/28 05:16:25;;;;;;;45.13;19.88;;;;;;;;;;4997838;28;20509;-70
2022/10/28 05:18:50;;;;;;;53.78;23.60;;;;;;;;;;4999941;28;20033;-70
2022/10/28 05:21:15;;;;;;;55.10;24.40;;;;;;;;;;4998509;28;20041;-70
2022/10/28 05:23:41;;;;;;;47.88;24.10;;;;;;;;;;4983280;28;21116;-70
2022/10/28 05:26:06;;;;;;;42.15;19.10;;;;;;;;;;5000042;28;20116;-71
2022/10/28 05:28:31;;;;;;;48.13;18.70;;;;;;;;;;5001684;28;20496;-69
2022/10/28 05:30:57;;;;;;;41.28;17.08;;;;;;;;;;5001139;28;20901;-70
2022/10/28 05:33:23;;;;;;;44.80;19.17;;;;;;;;;;5001617;28;20740;-70
2022/10/28 05:35:48;;;;;;;51.10;21.45;;;;;;;;;;5000065;28;20037;-68
2022/10/28 05:38:14;;;;;;;51.40;24.00;;;;;;;;;;5000003;28;20041;-71
2022/10/28 05:40:39;;;;;;;50.88;19.80;;;;;;;;;;4980763;28;20034;-70
2022/10/28 05:43:04;;;;;;;47.80;20.58;;;;;;;;;;5001921;28;20041;-68
2022/10/28 05:45:29;;;;;;;51.35;22.35;;;;;;;;;;4998323;28;20040;-68
2022/10/28 05:47:55;;;;;;;36.42;18.40;;;;;;;;;;5000506;28;20525;-68
2022/10/28 05:50:22;;;;;;;46.95;19.02;;;;;;;;;;5000865;28;20036;-70
2022/10/28 05:52:48;;;;;;;43.45;19.17;;;;;;;;;;4999005;28;20049;-69
2022/10/28 05:55:15;;;;;;;46.30;21.20;;;;;;;;;;4998919;28;20048;-70
2022/10/28 05:57:40;;;;;;;43.85;19.70;;;;;;;;;;5000747;28;20040;-69
2022/10/28 06:00:06;;;;;;;36.53;15.20;;;;;;;;;;5004450;28;20127;-69
2022/10/28 06:02:31;;;;;;;35.03;14.20;;;;;;;;;;4995835;28;20110;-68
2022/10/28 06:04:59;;;;;;;32.83;13.02;;;;;;;;;;5000372;28;20612;-68
2022/10/28 06:07:24;;;;;;;29.02;12.65;;;;;;;;;;5000164;28;20071;-68
2022/10/28 06:09:49;;;;;;;23.90;12.93;;;;;;;;;;5003112;28;22918;-69
2022/10/28 06:12:17;;;;;;;21.60;10.70;;;;;;;;;;5011605;28;20068;-69
2022/10/28 06:14:43;;;;;;;25.38;11.38;;;;;;;;;;4997995;28;20033;-69
2022/10/28 06:17:08;;;;;;;24.48;10.93;;;;;;;;;;4997004;28;20057;-69
2022/10/28 06:19:36;;;;;;;22.40;10.57;;;;;;;;;;4996276;28;20075;-69
2022/10/28 06:22:01;;;;;;;26.67;11.25;;;;;;;;;;4982587;28;20721;-69
2022/10/28 06:24:26;;;;;;;28.85;12.18;;;;;;;;;;4996977;28;20119;-69
2022/10/28 06:26:54;;;;;;;28.00;12.52;;;;;;;;;;4997911;28;20585;-68
2022/10/28 06:29:19;;;;;;;28.70;13.93;;;;;;;;;;4997626;28;20152;-70
2022/10/28 06:31:47;;;;;;;40.13;16.90;;;;;;;;;;4997091;28;20131;-69
2022/10/28 06:34:12;;;;;;;54.10;18.17;;;;;;;;;;4997977;28;20593;-70
2022/10/28 06:36:38;;;;;;;52.53;18.10;;;;;;;;;;4997581;28;20497;-70
2022/10/28 06:39:04;;;;;;;44.88;17.80;;;;;;;;;;4999312;28;20032;-68
2022/10/28 06:41:29;;;;;;;42.45;15.20;;;;;;;;;;4997246;28;21129;-69
2022/10/28 06:43:54;;;;;;;46.40;17.90;;;;;;;;;;4996580;28;20669;-69
2022/10/28 06:46:20;;;;;;;48.47;18.85;;;;;;;;;;4998167;28;20037;-69
2022/10/28 06:48:48;;;;;;;37.85;15.10;;;;;;;;;;4997384;28;20033;-69
2022/10/28 06:51:15;;;;;;;39.25;14.25;;;;;;;;;;4995243;28;20041;-70
2022/10/28 06:53:41;;;;;;;40.10;14.40;;;;;;;;;;4997566;28;20045;-69
2022/10/28 06:56:08;;;;;;;45.35;16.60;;;;;;;;;;4997135;28;20112;-69
2022/10/28 06:58:35;;;;;;;47.22;17.67;;;;;;;;;;5000223;28;21739;-69
2022/10/28 07:01:04;;;;;;;43.25;17.27;;;;;;;;;;4996285;28;20053;-68
2022/10/28 07:03:29;;;;;;;49.60;18.10;;;;;;;;;;4995731;28;21159;-69
2022/10/28 07:05:54;;;;;;;44.70;15.80;;;;;;;;;;4995114;28;20034;-68
2022/10/28 07:08:22;;;;;;;49.13;17.20;;;;;;;;;;4995378;28;20056;-69
2022/10/28 07:10:54;;;;;;;62.60;19.38;;;;;;;;;;5002618;28;21719;-67
2022/10/28 07:13:19;;;;;;;110.90;60.00;;;;;;;;;;4999176;28;20122;-68
2022/10/28 07:15:49;;;;;;;110.38;69.07;;;;;;;;;;4997454;28;20955;-70
2022/10/28 07:18:14;;;;;;;61.75;31.27;;;;;;;;;;4999376;28;20893;-68
2022/10/28 07:20:39;;;;;;;54.38;28.80;;;;;;;;;;4985820;28;20067;-69
2022/10/28 07:23:05;;;;;;;57.65;27.95;;;;;;;;;;4998383;28;20033;-67
2022/10/28 07:25:30;;;;;;;48.75;22.58;;;;;;;;;;4997280;28;20062;-68
2022/10/28 07:27:57;;;;;;;33.20;14.23;;;;;;;;;;4999792;28;20044;-67
2022/10/28 07:30:22;;;;;;;24.00;10.65;;;;;;;;;;4998764;28;20059;-67
2022/10/28 07:32:47;;;;;;;28.15;11.23;;;;;;;;;;4980284;28;20056;-69
2022/10/28 07:35:13;;;;;;;34.13;12.15;;;;;;;;;;4997422;28;20033;-69
2022/10/28 07:37:38;;;;;;;40.92;14.02;;;;;;;;;;4998247;28;20615;-69
2022/10/28 07:40:04;;;;;;;46.83;15.63;;;;;;;;;;4996527;28;20040;-68
2022/10/28 07:42:30;;;;;;;40.17;14.35;;;;;;;;;;5000053;28;20037;-68
2022/10/28 07:44:55;;;;;;;33.55;11.77;;;;;;;;;;4992992;28;20069;-68
2022/10/28 07:47:23;;;;;;;45.05;14.32;;;;;;;;;;4997267;28;20041;-66
2022/10/28 07:49:48;;;;;;;45.40;12.65;;;;;;;;;;4994365;28;20026;-66
2022/10/28 07:52:13;;;;;;;42.00;13.35;;;;;;;;;;4994539;28;20042;-68
2022/10/28 07:54:41;;;;;;;39.90;13.27;;;;;;;;;;4993544;28;20225;-67
2022/10/28 07:57:08;;;;;;;36.80;11.80;;;;;;;;;;4997661;28;22607;-68
2022/10/28 07:59:34;;;;;;;43.10;12.52;;;;;;;;;;4994347;28;20036;-67
2022/10/28 08:01:59;;;;;;;51.13;15.18;;;;;;;;;;4993520;28;20037;-67
2022/10/28 08:04:24;;;;;;;40.45;13.70;;;;;;;;;;5000248;28;20758;-67
2022/10/28 08:06:50;;;;;;;30.50;11.05;;;;;;;;;;5009807;28;20029;-69
2022/10/28 08:09:15;;;;;;;45.22;15.25;;;;;;;;;;4997531;28;20123;-67
2022/10/28 08:11:40;;;;;;;37.47;13.75;;;;;;;;;;4997474;28;20883;-67
2022/10/28 08:14:05;;;;;;;41.35;13.23;;;;;;;;;;4996385;28;20051;-66
2022/10/28 08:16:31;;;;;;;43.53;12.38;;;;;;;;;;5001109;28;20072;-69
2022/10/28 08:18:58;;;;;;;41.90;13.35;;;;;;;;;;4994444;28;20037;-68
2022/10/28 08:21:25;;;;;;;44.08;14.25;;;;;;;;;;4996635;28;20116;-67
2022/10/28 08:23:52;;;;;;;43.65;15.00;;;;;;;;;;4995657;28;20083;-68
2022/10/28 08:26:17;;;;;;;43.17;13.75;;;;;;;;;;4993242;28;20052;-67
2022/10/28 08:28:43;;;;;;;44.10;12.77;;;;;;;;;;4994155;28;20033;-68
2022/10/28 08:31:08;;;;;;;40.45;12.90;;;;;;;;;;4999017;28;20033;-67
2022/10/28 08:33:38;;;;;;;42.13;14.50;;;;;;;;;;4995421;28;20068;-68
2022/10/28 08:36:06;;;;;;;36.30;12.10;;;;;;;;;;5011169;28;21166;-68
2022/10/28 08:38:32;;;;;;;41.83;13.80;;;;;;;;;;4998725;28;20034;-67
2022/10/28 08:41:03;;;;;;;39.97;13.30;;;;;;;;;;4997597;28;20052;-67
2022/10/28 08:43:41;;;;;;;29.83;10.27;;;;;;;;;;5002866;28;20685;-67
2022/10/28 08:46:25;;;;;;;24.00;8.85;;;;;;;;;;5001801;28;20034;-68
2022/10/28 08:48:50;;;;;;;28.80;10.95;;;;;;;;;;5002048;28;20036;-67
2022/10/28 08:51:24;;;;;;;37.88;11.68;;;;;;;;;;5007957;28;20065;-66
2022/10/28 08:54:06;;;;;;;42.65;12.90;;;;;;;;;;5002085;28;21273;-68
2022/10/28 08:56:31;;;;;;;;;;;;;;;;;;5002541;28;20044;-69
2022/10/28 08:58:59;;;;;;;35.35;11.43;;;;;;;;;;5002369;28;19996;-68
2022/10/28 09:01:50;;;;;;;35.78;11.80;;;;;;;;;;5002445;28;20623;-69
2022/10/28 09:04:32;;;;;;;35.47;9.82;;;;;;;;;;4999326;28;20052;-70
2022/10/28 09:06:58;;;;;;;25.77;8.55;;;;;;;;;;4996646;28;20041;-71
2022/10/28 09:09:26;;;;;;;24.80;8.32;;;;;;;;;;5002143;28;20222;-71
2022/10/28 09:12:09;;;;;;;26.80;9.23;;;;;;;;;;5000682;28;20047;-69
2022/10/28 09:14:35;;;;;;;30.77;10.40;;;;;;;;;;5001206;28;20037;-70
2022/10/28 09:17:08;;;;;;;22.85;8.40;;;;;;;;;;5002365;28;20040;-68
2022/10/28 09:19:50;;;;;;;23.15;7.70;;;;;;;;;;5015051;28;20067;-69
2022/10/28 09:22:21;;;;;;;20.70;7.30;;;;;;;;;;5002057;28;20155;-69
2022/10/28 09:24:46;;;;;;;20.75;7.57;;;;;;;;;;5000913;28;20040;-70
2022/10/28 09:27:17;;;;;;;37.63;11.40;;;;;;;;;;5001129;28;21200;-69
2022/10/28 09:29:59;;;;;;;33.75;11.18;;;;;;;;;;5001330;28;20598;-69
2022/10/28 09:32:50;;;;;;;40.78;11.98;;;;;;;;;;5002581;28;20040;-69
2022/10/28 09:35:18;;;;;;;41.15;11.45;;;;;;;;;;4994771;28;20029;-69
2022/10/28 09:37:48;;;;;;;34.58;10.18;;;;;;;;;;5000365;28;20150;-69
2022/10/28 09:40:25;;;;;;;33.33;8.82;;;;;;;;;;4998633;28;20029;-70
2022/10/28 09:42:59;;;;;;;30.38;9.98;;;;;;;;;;5001809;28;20025;-70
2022/10/28 09:45:26;;;;;;;25.75;10.00;;;;;;;;;;5004315;28;20033;-70
2022/10/28 09:48:07;;;;;;;30.70;10.10;;;;;;;;;;4999603;28;20045;-69
2022/10/28 09:50:33;;;;;;;34.65;10.35;;;;;;;;;;5001556;28;20793;-69
2022/10/28 09:53:13;;;;;;;36.90;10.57;;;;;;;;;;5000437;28;20258;-68
2022/10/28 09:55:41;;;;;;;35.47;10.10;;;;;;;;;;5002882;28;20052;-68
2022/10/28 09:58:06;;;;;;;36.08;11.23;;;;;;;;;;5001364;28;20061;-68
2022/10/28 10:00:31;;;;;;;26.50;8.73;;;;;;;;;;4999047;28;20922;-68
2022/10/28 10:02:57;;;;;;;27.52;9.00;;;;;;;;;;4999789;28;20038;-69
2022/10/28 10:05:23;;;;;;;32.80;10.05;;;;;;;;;;4997049;28;20037;-68
2022/10/28 10:08:00;;;;;;;33.20;10.13;;;;;;;;;;5001380;28;20044;-69
2022/10/28 10:10:32;;;;;;;32.47;9.88;;;;;;;;;;4994257;28;20041;-69
2022/10/28 10:13:00;;;;;;;23.23;8.00;;;;;;;;;;4995146;28;20449;-69
2022/10/28 10:15:34;;;;;;;27.27;9.45;;;;;;;;;;4993278;28;20448;-68
2022/10/28 10:18:03;;;;;;;31.08;9.65;;;;;;;;;;4995384;28;20499;-69
2022/10/28 10:20:44;;;;;;;28.45;8.55;;;;;;;;;;4998604;28;20844;-69
2022/10/28 10:23:30;;;;;;;21.63;7.17;;;;;;;;;;5000101;28;20064;-68
2022/10/28 10:26:03;;;;;;;18.63;6.90;;;;;;;;;;4996813;28;20115;-68
2022/10/28 10:28:32;;;;;;;23.27;7.00;;;;;;;;;;5001047;28;20124;-68
2022/10/28 10:30:59;;;;;;;23.95;8.40;;;;;;;;;;4999403;28;20122;-69
2022/10/28 10:33:29;;;;;;;27.33;9.85;;;;;;;;;;5000463;28;20080;-68
2022/10/28 10:35:56;;;;;;;20.75;7.13;;;;;;;;;;5003482;28;20033;-68
2022/10/28 10:38:24;;;;;;;27.67;9.40;;;;;;;;;;5000924;28;20194;-67
2022/10/28 10:40:51;;;;;;;26.58;9.55;;;;;;;;;;4997096;28;22265;-68
2022/10/28 10:43:16;;;;;;;26.40;8.20;;;;;;;;;;4999289;28;20037;-68
2022/10/28 10:45:49;;;;;;;21.20;7.53;;;;;;;;;;4998399;28;20076;-68
2022/10/28 10:48:17;;;;;;;21.45;7.43;;;;;;;;;;4999469;28;20033;-73
2022/10/28 10:50:46;;;;;;;21.85;7.55;;;;;;;;;;5012869;28;20095;-68
2022/10/28 10:53:18;;;;;;;22.92;7.85;;;;;;;;;;5000389;28;20149;-69
2022/10/28 10:55:48;;;;;;;16.67;7.45;;;;;;;;;;4998063;28;20045;-70
2022/10/28 10:58:15;;;;;;;21.75;7.47;;;;;;;;;;4999810;28;21080;-70
2022/10/28 11:00:46;;;;;;;18.70;8.02;;;;;;;;;;5002516;28;20037;-68
2022/10/28 11:03:21;;;;;;;23.13;7.60;;;;;;;;;;4998714;28;20735;-67
2022/10/28 11:05:48;;;;;;;22.80;8.07;;;;;;;;;;4999391;28;20037;-67
2022/10/28 11:08:31;;;;;;;22.48;6.60;;;;;;;;;;4994802;28;20044;-69
2022/10/28 11:11:03;;;;;;;19.92;7.18;;;;;;;;;;4997593;28;20033;-66
2022/10/28 11:13:29;;;;;;;20.60;7.78;;;;;;;;;;4999404;28;20844;-68
2022/10/28 11:15:58;;;;;;;18.00;7.72;;;;;;;;;;4999193;28;20043;-68
2022/10/28 11:18:23;;;;;;;25.67;7.05;;;;;;;;;;5001333;28;20041;-68
2022/10/28 11:20:56;;;;;;;19.10;8.23;;;;;;;;;;4998317;28;20037;-69
2022/10/28 11:23:21;;;;;;;22.65;8.13;;;;;;;;;;4998617;28;20068;-69
2022/10/28 11:25:51;;;;;;;23.50;8.02;;;;;;;;;;4987307;28;20033;-69
2022/10/28 11:28:23;;;;;;;22.05;9.07;;;;;;;;;;4998657;28;20041;-72
2022/10/28 11:30:57;;;;;;;20.40;7.20;;;;;;;;;;4993444;28;20045;-73
2022/10/28 11:33:46;;;;;;;17.10;5.80;;;;;;;;;;4998578;28;20894;-72
2022/10/28 11:36:27;;;;;;;20.17;5.40;;;;;;;;;;4996821;28;21869;-69
2022/10/28 11:38:52;;;;;;;18.83;5.40;;;;;;;;;;4998668;28;20033;-74
2022/10/28 11:41:20;;;;;;;17.08;5.25;;;;;;;;;;4994858;28;20650;-73
2022/10/28 11:43:54;;;;;;;20.98;5.63;;;;;;;;;;4998557;28;20898;-73
2022/10/28 11:46:39;;;;;;;15.95;6.22;;;;;;;;;;4997393;28;20516;-71
2022/10/28 11:49:24;;;;;;;22.35;7.03;;;;;;;;;;4994239;28;20681;-72
2022/10/28 11:51:54;;;;;;;21.88;7.75;;;;;;;;;;4996550;28;20044;-71
2022/10/28 11:54:37;;;;;;;19.48;7.40;;;;;;;;;;4994802;28;20041;-70
2022/10/28 11:57:13;;;;;;;16.92;7.90;;;;;;;;;;4997926;28;20316;-70
2022/10/28 11:59:57;;;;;;;18.67;6.38;;;;;;;;;;4995199;28;20033;-71
2022/10/28 12:02:47;;;;;;;18.45;6.82;;;;;;;;;;4996926;28;20397;-71
2022/10/28 12:05:24;;;;;;;19.58;6.32;;;;;;;;;;4994497;28;20675;-70
2022/10/28 12:08:01;;;;;;;20.42;6.75;;;;;;;;;;4999216;28;20490;-71
2022/10/28 12:10:30;;;;;;;22.83;6.25;;;;;;;;;;4996285;28;20037;-70
2022/10/28 12:13:10;;;;;;;28.02;7.38;;;;;;;;;;4996698;28;20051;-72
2022/10/28 12:15:47;;;;;;;18.15;6.38;;;;;;;;;;4994695;28;20786;-69
2022/10/28 12:18:13;;;;;;;21.23;7.70;;;;;;;;;;4996196;28;20083;-72
2022/10/28 12:20:45;;;;;;;17.67;5.97;;;;;;;;;;4997179;28;20037;-74
2022/10/28 12:23:12;;;;;;;14.63;5.63;;;;;;;;;;4995098;28;20127;-72
2022/10/28 12:25:39;;;;;;;21.95;5.88;;;;;;;;;;4996539;28;20086;-70
2022/10/28 12:28:15;;;;;;;18.15;5.47;;;;;;;;;;4994616;28;20037;-69
2022/10/28 12:30:43;;;;;;;17.38;5.40;;;;;;;;;;4999141;28;20037;-70
2022/10/28 12:33:29;;;;;;;17.25;5.85;;;;;;;;;;4996103;28;20041;-74
2022/10/28 12:36:16;;;;;;;20.55;5.60;;;;;;;;;;4994538;28;20030;-69
2022/10/28 12:39:02;;;;;;;18.67;5.63;;;;;;;;;;4992867;28;20033;-71
2022/10/28 12:41:46;;;;;;;22.80;6.00;;;;;;;;;;4996553;28;20124;-71
2022/10/28 12:44:17;;;;;;;19.35;6.18;;;;;;;;;;4996929;28;20130;-70
2022/10/28 12:47:02;;;;;;;21.08;5.93;;;;;;;;;;4996232;28;20036;-72
2022/10/28 12:49:27;;;;;;;21.50;5.97;;;;;;;;;;4996924;28;20146;-73
2022/10/28 12:51:52;;;;;;;22.40;6.00;;;;;;;;;;4995960;28;20533;-71
2022/10/28 12:54:26;;;;;;;25.77;6.05;;;;;;;;;;4994284;28;20037;-70
2022/10/28 12:56:58;;;;;;;25.10;6.40;;;;;;;;;;4994923;28;20119;-70
2022/10/28 12:59:29;;;;;;;18.83;6.10;;;;;;;;;;4997417;28;20783;-70
2022/10/28 13:01:55;;;;;;;23.63;6.05;;;;;;;;;;4996650;28;20041;-69
2022/10/28 13:04:20;;;;;;;29.95;5.80;;;;;;;;;;4997158;28;20022;-70
2022/10/28 13:06:48;;;;;;;19.35;5.50;;;;;;;;;;4993484;28;20132;-69
2022/10/28 13:09:36;;;;;;;22.50;6.47;;;;;;;;;;5009439;28;20590;-71
2022/10/28 13:12:04;;;;;;;25.05;6.32;;;;;;;;;;4996294;28;20037;-70
2022/10/28 13:14:40;;;;;;;25.30;6.75;;;;;;;;;;4998079;28;20136;-69
2022/10/28 13:17:14;;;;;;;21.05;6.03;;;;;;;;;;5000560;28;20071;-69
2022/10/28 13:19:48;;;;;;;19.65;6.03;;;;;;;;;;4998033;28;20064;-69
2022/10/28 13:22:22;;;;;;;26.48;6.25;;;;;;;;;;4998714;28;20155;-69
2022/10/28 13:25:07;;;;;;;25.00;6.63;;;;;;;;;;5011268;28;20033;-71
2022/10/28 13:27:32;;;;;;;28.13;7.07;;;;;;;;;;4997359;28;20044;-69
2022/10/28 13:29:59;;;;;;;23.65;6.28;;;;;;;;;;5001821;28;20037;-69
2022/10/28 13:32:29;;;;;;;28.08;6.47;;;;;;;;;;5004559;28;20052;-71
2022/10/28 13:34:57;;;;;;;27.45;7.18;;;;;;;;;;5001661;28;20810;-69
2022/10/28 13:37:26;;;;;;;25.58;6.63;;;;;;;;;;5000701;28;20033;-70
2022/10/28 13:39:51;;;;;;;27.13;6.82;;;;;;;;;;5002614;28;20921;-71
2022/10/28 13:42:19;;;;;;;24.35;6.70;;;;;;;;;;4986470;28;20140;-72
2022/10/28 13:44:59;;;;;;;25.88;7.15;;;;;;;;;;5001404;28;20806;-68
2022/10/28 13:47:31;;;;;;;28.00;7.13;;;;;;;;;;5000846;28;20038;-69
2022/10/28 13:50:06;;;;;;;19.45;6.60;;;;;;;;;;5001082;28;20025;-72
2022/10/28 13:52:38;;;;;;;28.70;7.15;;;;;;;;;;5001667;28;20883;-69
2022/10/28 13:55:13;;;;;;;26.58;6.97;;;;;;;;;;5001365;28;20883;-69
2022/10/28 13:57:40;;;;;;;19.88;6.07;;;;;;;;;;5000974;28;20104;-69
2022/10/28 14:00:25;;;;;;;27.65;6.68;;;;;;;;;;4999884;28;20681;-70
2022/10/28 14:02:58;;;;;;;22.67;6.72;;;;;;;;;;4999075;28;20588;-69
2022/10/28 14:05:35;;;;;;;27.05;6.32;;;;;;;;;;4996193;28;20136;-71
2022/10/28 14:08:06;;;;;;;22.48;6.45;;;;;;;;;;5000229;28;20029;-70
2022/10/28 14:10:35;;;;;;;23.80;6.60;;;;;;;;;;5003055;28;20167;-71
2022/10/28 14:13:02;;;;;;;22.80;7.10;;;;;;;;;;5003304;28;20863;-69
2022/10/28 14:15:32;;;;;;;28.20;7.05;;;;;;;;;;5002996;28;20908;-71
2022/10/28 14:18:13;;;;;;;23.35;6.22;;;;;;;;;;5002066;28;20037;-71
2022/10/28 14:20:47;;;;;;;24.42;6.95;;;;;;;;;;5005868;28;20039;-70
2022/10/28 14:23:19;;;;;;;24.08;6.82;;;;;;;;;;5003651;28;20044;-70
2022/10/28 14:25:50;;;;;;;26.73;6.97;;;;;;;;;;5012132;28;20045;-74
2022/10/28 14:28:30;;;;;;;20.73;6.47;;;;;;;;;;5007665;28;20151;-70
2022/10/28 14:31:09;;;;;;;26.05;6.65;;;;;;;;;;4998186;28;20033;-69
2022/10/28 14:34:03;;;;;;;18.52;6.30;;;;;;;;;;4997562;28;21688;-70
2022/10/28 14:36:47;;;;;;;26.35;6.97;;;;;;;;;;4998112;28;20683;-69